createdAt,value
2022-08-27T00:01:41.404Z,88.40
2022-08-27T00:04:08.573Z,88.50
2022-08-27T00:06:36.437Z,88.20
2022-08-27T00:09:05.407Z,88.60
2022-08-27T00:11:32.442Z,88.20
2022-08-27T00:13:59.465Z,88.30
2022-08-27T00:16:26.785Z,88.20
2022-08-27T00:18:55.895Z,88.00
2022-08-27T00:21:23.374Z,87.50
2022-08-27T00:23:50.348Z,87.80
2022-08-27T00:26:17.752Z,87.80
2022-08-27T00:28:45.190Z,87.80
2022-08-27T00:31:12.776Z,87.80
2022-08-27T00:33:40.750Z,87.50
2022-08-27T00:36:08.576Z,87.20
2022-08-27T00:38:38.409Z,87.20
2022-08-27T00:41:08.679Z,86.70
2022-08-27T00:43:50.033Z,86.90
2022-08-27T00:46:52.182Z,87.00
2022-08-27T00:49:26.613Z,86.70
2022-08-27T00:52:05.822Z,86.60
2022-08-27T00:54:33.535Z,86.40
2022-08-27T00:57:01.386Z,86.20
2022-08-27T00:59:30.960Z,86.10
2022-08-27T01:02:18.034Z,86.20
2022-08-27T01:04:52.939Z,86.10
2022-08-27T01:07:22.080Z,86.10
2022-08-27T01:09:51.737Z,86.20
2022-08-27T01:12:20.231Z,86.10
2022-08-27T01:14:47.710Z,86.20
2022-08-27T01:17:15.943Z,86.40
2022-08-27T01:19:52.319Z,86.50
2022-08-27T01:22:42.088Z,86.40
2022-08-27T01:25:12.929Z,86.50
2022-08-27T01:27:42.768Z,86.70
2022-08-27T01:30:14.630Z,86.30
2022-08-27T01:32:43.364Z,86.30
2022-08-27T01:35:14.410Z,86.50
2022-08-27T01:37:43.383Z,86.50
2022-08-27T01:40:13.599Z,86.60
2022-08-27T01:42:49.894Z,86.30
2022-08-27T01:45:26.672Z,86.50
2022-08-27T01:47:54.097Z,86.20
2022-08-27T01:50:27.282Z,86.20
2022-08-27T01:52:56.152Z,86.20
2022-08-27T01:55:26.077Z,85.90
2022-08-27T01:57:55.284Z,85.70
2022-08-27T02:00:29.536Z,85.90
2022-08-27T02:02:59.043Z,85.80
2022-08-27T02:05:27.934Z,85.50
2022-08-27T02:07:55.588Z,85.30
2022-08-27T02:10:31.850Z,85.40
2022-08-27T02:12:58.879Z,85.30
2022-08-27T02:15:28.771Z,85.10
2022-08-27T02:17:56.312Z,84.80
2022-08-27T02:20:23.294Z,84.90
2022-08-27T02:22:52.402Z,84.70
2022-08-27T02:25:20.513Z,84.80
2022-08-27T02:27:49.911Z,84.70
2022-08-27T02:30:22.474Z,84.30
2022-08-27T02:32:49.606Z,84.30
2022-08-27T02:35:19.134Z,84.30
2022-08-27T02:37:47.017Z,84.40
2022-08-27T02:40:18.203Z,84.50
2022-08-27T02:42:46.560Z,84.50
2022-08-27T02:45:16.767Z,84.30
2022-08-27T02:47:44.007Z,84.30
2022-08-27T02:50:13.453Z,83.80
2022-08-27T02:52:40.983Z,83.60
2022-08-27T02:55:08.722Z,83.50
2022-08-27T02:57:36.725Z,83.60
2022-08-27T03:00:12.093Z,84.20
2022-08-27T03:02:39.115Z,83.90
2022-08-27T03:05:08.521Z,84.00
2022-08-27T03:07:36.509Z,84.10
2022-08-27T03:10:06.249Z,84.00
2022-08-27T03:12:36.281Z,83.90
2022-08-27T03:15:13.515Z,83.70
2022-08-27T03:17:59.168Z,83.90
2022-08-27T03:20:28.117Z,84.40
2022-08-27T03:22:55.413Z,83.50
2022-08-27T03:25:22.817Z,83.40
2022-08-27T03:27:49.725Z,83.50
2022-08-27T03:30:22.974Z,83.30
2022-08-27T03:32:53.988Z,83.30
2022-08-27T03:35:22.291Z,83.00
2022-08-27T03:37:50.330Z,83.10
2022-08-27T03:40:18.698Z,83.00
2022-08-27T03:42:45.836Z,83.00
2022-08-27T03:45:13.280Z,82.80
2022-08-27T03:47:40.502Z,82.70
2022-08-27T03:50:09.951Z,82.70
2022-08-27T03:52:37.723Z,82.70
2022-08-27T03:55:08.098Z,82.70
2022-08-27T03:57:35.180Z,82.30
2022-08-27T04:00:02.560Z,82.60
2022-08-27T04:02:41.171Z,82.50
2022-08-27T04:05:11.928Z,82.30
2022-08-27T04:07:41.452Z,82.60
2022-08-27T04:10:11.162Z,82.50
2022-08-27T04:12:38.864Z,82.60
2022-08-27T04:15:08.436Z,82.60
2022-08-27T04:17:35.445Z,82.30
2022-08-27T04:20:24.956Z,82.30
2022-08-27T04:22:50.288Z,82.30
2022-08-27T04:25:17.160Z,82.30
2022-08-27T04:27:44.083Z,82.20
2022-08-27T04:30:15.473Z,82.10
2022-08-27T04:32:42.436Z,82.10
2022-08-27T04:35:09.621Z,81.90
2022-08-27T04:37:36.454Z,82.60
2022-08-27T04:40:03.929Z,81.90
2022-08-27T04:42:31.270Z,82.00
2022-08-27T04:44:58.246Z,81.90
2022-08-27T04:47:25.081Z,82.10
2022-08-27T04:49:51.932Z,82.00
2022-08-27T04:52:18.837Z,82.00
2022-08-27T04:54:46.126Z,82.00
2022-08-27T04:57:13.145Z,82.00
2022-08-27T04:59:40.117Z,82.10
2022-08-27T05:02:09.315Z,82.20
2022-08-27T05:04:40.062Z,82.30
2022-08-27T05:07:09.687Z,82.20
2022-08-27T05:09:36.752Z,82.20
2022-08-27T05:12:04.133Z,82.10
2022-08-27T05:14:32.554Z,82.10
2022-08-27T05:17:00.313Z,82.10
2022-08-27T05:19:31.247Z,81.80
2022-08-27T05:21:58.325Z,81.90
2022-08-27T05:24:25.444Z,81.90
2022-08-27T05:26:53.062Z,81.90
2022-08-27T05:29:20.303Z,81.80
2022-08-27T05:31:48.318Z,81.70
2022-08-27T05:34:22.520Z,81.60
2022-08-27T05:36:53.093Z,81.60
2022-08-27T05:39:19.975Z,81.60
2022-08-27T05:41:47.462Z,81.50
2022-08-27T05:47:04.300Z,81.70
2022-08-27T05:49:31.717Z,81.40
2022-08-27T05:51:58.781Z,81.40
2022-08-27T05:54:25.646Z,81.50
2022-08-27T05:56:52.643Z,81.20
2022-08-27T05:59:37.991Z,81.40
2022-08-27T06:02:06.092Z,81.30
2022-08-27T06:04:33.718Z,81.40
2022-08-27T06:07:00.704Z,81.40
2022-08-27T06:09:30.502Z,81.30
2022-08-27T06:12:01.908Z,81.00
2022-08-27T06:14:42.929Z,81.00
2022-08-27T06:17:35.460Z,81.00
2022-08-27T06:21:03.412Z,80.70
2022-08-27T06:23:56.106Z,80.80
2022-08-27T06:26:26.054Z,80.60
2022-08-27T06:28:53.361Z,80.80
2022-08-27T06:31:27.291Z,80.90
2022-08-27T06:34:00.754Z,80.90
2022-08-27T06:36:30.727Z,80.70
2022-08-27T06:38:58.426Z,80.30
2022-08-27T06:41:28.481Z,80.20
2022-08-27T06:43:58.326Z,80.20
2022-08-27T06:46:29.546Z,80.30
2022-08-27T06:49:00.556Z,80.30
2022-08-27T06:51:35.048Z,80.20
2022-08-27T06:54:08.034Z,80.10
2022-08-27T06:56:36.184Z,80.40
2022-08-27T06:59:11.429Z,80.10
2022-08-27T07:01:43.341Z,80.00
2022-08-27T07:04:16.910Z,79.80
2022-08-27T07:06:44.197Z,79.70
2022-08-27T07:09:12.083Z,79.80
2022-08-27T07:11:40.365Z,79.80
2022-08-27T07:14:08.293Z,79.90
2022-08-27T07:16:36.359Z,79.80
2022-08-27T07:19:05.459Z,79.70
2022-08-27T07:21:38.062Z,79.50
2022-08-27T07:24:06.410Z,79.30
2022-08-27T07:26:37.838Z,79.40
2022-08-27T07:29:11.213Z,79.50
2022-08-27T07:31:38.881Z,79.40
2022-08-27T07:34:07.493Z,79.50
2022-08-27T07:36:35.764Z,79.40
2022-08-27T07:39:02.636Z,79.20
2022-08-27T07:41:57.394Z,79.50
2022-08-27T07:44:31.016Z,79.40
2022-08-27T07:47:02.365Z,79.10
2022-08-27T07:49:30.061Z,78.60
2022-08-27T07:51:57.076Z,78.80
2022-08-27T07:54:24.071Z,78.90
2022-08-27T07:56:55.400Z,78.80
2022-08-27T07:59:27.205Z,78.90
2022-08-27T08:01:56.519Z,78.90
2022-08-27T08:04:24.836Z,78.40
2022-08-27T08:06:52.913Z,78.70
2022-08-27T08:09:23.995Z,78.70
2022-08-27T08:11:52.942Z,78.90
2022-08-27T08:14:20.474Z,78.80
2022-08-27T08:16:47.903Z,78.70
2022-08-27T08:19:15.369Z,78.60
2022-08-27T08:21:42.772Z,78.50
2022-08-27T08:24:09.633Z,78.20
2022-08-27T08:26:36.608Z,78.10
2022-08-27T08:29:05.149Z,78.10
2022-08-27T08:31:32.520Z,77.80
2022-08-27T08:33:59.472Z,77.60
2022-08-27T08:36:26.417Z,77.30
2022-08-27T08:38:54.273Z,77.10
2022-08-27T08:41:43.922Z,77.10
2022-08-27T08:44:32.747Z,76.90
2022-08-27T08:47:10.387Z,76.60
2022-08-27T08:49:55.827Z,76.50
2022-08-27T08:52:34.550Z,76.50
2022-08-27T08:55:37.123Z,75.90
2022-08-27T08:58:41.480Z,75.70
2022-08-27T09:01:10.811Z,75.60
2022-08-27T09:03:42.444Z,75.30
2022-08-27T09:06:24.082Z,75.10
2022-08-27T09:08:51.032Z,75.00
2022-08-27T09:11:43.191Z,74.40
2022-08-27T09:14:37.376Z,74.80
2022-08-27T09:17:10.826Z,74.70
2022-08-27T09:19:39.046Z,74.40
2022-08-27T09:22:15.032Z,74.20
2022-08-27T09:25:10.340Z,73.90
2022-08-27T09:27:42.275Z,73.20
2022-08-27T09:30:18.926Z,73.30
2022-08-27T09:32:45.758Z,72.90
2022-08-27T09:35:20.495Z,73.40
2022-08-27T09:37:52.699Z,73.00
2022-08-27T09:40:33.514Z,73.10
2022-08-27T09:43:16.980Z,72.80
2022-08-27T09:45:55.426Z,72.60
2022-08-27T09:48:28.801Z,69.90
2022-08-27T09:51:09.822Z,68.30
2022-08-27T09:53:55.819Z,69.70
2022-08-27T09:56:40.219Z,67.60
2022-08-27T09:59:13.145Z,65.80
2022-08-27T10:02:02.431Z,66.10
2022-08-27T10:04:50.461Z,65.30
2022-08-27T10:07:36.046Z,64.20
2022-08-27T10:10:56.900Z,62.10
2022-08-27T10:14:01.356Z,62.70
2022-08-27T10:17:08.677Z,60.60
2022-08-27T10:19:50.198Z,59.00
2022-08-27T10:22:47.037Z,56.60
2022-08-27T10:25:35.573Z,55.80
2022-08-27T10:28:24.457Z,55.80
2022-08-27T10:31:17.514Z,56.40
2022-08-27T10:34:08.917Z,56.50
2022-08-27T10:37:07.450Z,57.20
2022-08-27T10:40:08.690Z,57.40
2022-08-27T10:43:12.869Z,58.50
2022-08-27T10:46:04.580Z,58.70
2022-08-27T10:48:40.134Z,58.90
2022-08-27T10:51:26.044Z,57.80
2022-08-27T10:54:05.777Z,59.60
2022-08-27T10:56:46.672Z,58.60
2022-08-27T10:59:57.043Z,59.10
2022-08-27T11:02:44.921Z,59.20
2022-08-27T11:05:26.833Z,59.10
2022-08-27T11:08:09.901Z,59.60
2022-08-27T11:10:45.229Z,60.00
2022-08-27T11:13:32.917Z,60.20
2022-08-27T11:16:10.670Z,59.20
2022-08-27T11:18:43.790Z,59.40
2022-08-27T11:21:34.573Z,59.10
2022-08-27T11:24:53.865Z,59.40
2022-08-27T11:27:26.932Z,59.50
2022-08-27T11:30:10.009Z,59.70
2022-08-27T11:33:07.174Z,60.00
2022-08-27T11:35:58.992Z,59.50
2022-08-27T11:38:44.376Z,60.00
2022-08-27T11:41:44.667Z,59.30
2022-08-27T11:44:15.854Z,59.10
2022-08-27T11:46:50.888Z,59.40
2022-08-27T11:49:35.271Z,58.90
2022-08-27T11:52:09.676Z,59.00
2022-08-27T11:54:56.542Z,58.90
2022-08-27T11:57:31.393Z,58.60
2022-08-27T11:59:58.995Z,58.80
2022-08-27T12:02:29.410Z,58.30
2022-08-27T12:05:32.269Z,58.20
2022-08-27T12:07:59.706Z,59.20
2022-08-27T12:10:33.636Z,59.10
2022-08-27T12:13:52.343Z,59.00
2022-08-27T12:16:41.340Z,59.00
2022-08-27T12:19:23.269Z,59.00
2022-08-27T12:22:07.751Z,59.40
2022-08-27T12:24:58.047Z,59.10
2022-08-27T12:27:36.557Z,58.90
2022-08-27T12:30:30.106Z,59.00
2022-08-27T12:33:10.275Z,58.70
2022-08-27T12:35:52.429Z,57.90
2022-08-27T12:38:34.840Z,57.70
2022-08-27T12:41:08.799Z,57.60
2022-08-27T12:43:43.216Z,57.40
2022-08-27T12:46:19.335Z,57.00
2022-08-27T12:48:54.991Z,56.60
2022-08-27T12:51:33.626Z,57.10
2022-08-27T12:54:12.539Z,56.20
2022-08-27T12:56:58.643Z,56.40
2022-08-27T12:59:46.647Z,56.40
2022-08-27T13:02:23.299Z,56.00
2022-08-27T13:04:51.041Z,56.90
2022-08-27T13:07:38.776Z,56.80
2022-08-27T13:10:28.271Z,56.70
2022-08-27T13:13:10.208Z,56.80
2022-08-27T13:15:44.854Z,57.20
2022-08-27T13:18:12.267Z,57.10
2022-08-27T13:20:40.501Z,56.30
2022-08-27T13:23:20.504Z,56.50
2022-08-27T13:26:04.495Z,56.70
2022-08-27T13:28:34.181Z,56.60
2022-08-27T13:31:02.810Z,56.70
2022-08-27T13:33:35.076Z,57.30
2022-08-27T13:36:03.947Z,57.80
2022-08-27T13:38:40.357Z,56.60
2022-08-27T13:41:34.087Z,57.40
2022-08-27T13:44:18.411Z,57.40
2022-08-27T13:46:53.360Z,56.80
2022-08-27T13:49:27.742Z,56.70
2022-08-27T13:52:29.182Z,56.90
2022-08-27T13:55:14.829Z,57.60
2022-08-27T13:57:46.114Z,56.40
2022-08-27T14:00:38.554Z,57.10
2022-08-27T14:03:30.469Z,56.50
2022-08-27T14:05:57.477Z,56.60
2022-08-27T14:08:32.788Z,56.10
2022-08-27T14:11:09.683Z,56.60
2022-08-27T14:13:46.708Z,56.20
2022-08-27T14:16:31.285Z,55.90
2022-08-27T14:19:11.343Z,55.50
2022-08-27T14:21:43.197Z,55.90
2022-08-27T14:24:10.099Z,56.40
2022-08-27T14:26:37.377Z,56.00
2022-08-27T14:29:04.447Z,55.20
2022-08-27T14:31:39.143Z,54.90
2022-08-27T14:34:08.278Z,55.50
2022-08-27T14:36:40.619Z,55.80
2022-08-27T14:39:08.350Z,55.60
2022-08-27T14:41:36.032Z,56.20
2022-08-27T14:44:03.378Z,55.60
2022-08-27T14:46:41.525Z,56.20
2022-08-27T14:49:31.710Z,56.10
2022-08-27T14:51:58.810Z,56.60
2022-08-27T14:54:29.168Z,56.60
2022-08-27T14:57:02.892Z,56.60
2022-08-27T14:59:30.040Z,56.20
2022-08-27T15:01:59.523Z,56.10
2022-08-27T15:04:27.756Z,56.30
2022-08-27T15:06:55.323Z,56.40
2022-08-27T15:09:22.564Z,56.70
2022-08-27T15:11:50.902Z,56.30
2022-08-27T15:14:35.478Z,56.50
2022-08-27T15:17:22.064Z,56.30
2022-08-27T15:19:52.396Z,56.50
2022-08-27T15:22:22.953Z,56.90
2022-08-27T15:24:57.759Z,56.90
2022-08-27T15:27:31.989Z,56.90
2022-08-27T15:30:08.901Z,56.80
2022-08-27T15:32:48.126Z,56.80
2022-08-27T15:35:22.859Z,57.00
2022-08-27T15:37:49.953Z,56.60
2022-08-27T15:40:19.988Z,56.80
2022-08-27T15:42:54.670Z,56.80
2022-08-27T15:45:25.510Z,56.90
2022-08-27T15:47:52.785Z,56.80
2022-08-27T15:50:20.043Z,56.70
2022-08-27T15:52:49.043Z,56.80
2022-08-27T15:55:35.724Z,56.90
2022-08-27T15:58:04.103Z,56.80
2022-08-27T16:00:34.174Z,56.70
2022-08-27T16:03:07.089Z,56.60
2022-08-27T16:05:39.613Z,56.80
2022-08-27T16:08:07.418Z,56.70
2022-08-27T16:10:35.286Z,57.00
2022-08-27T16:13:02.610Z,56.90
2022-08-27T16:15:32.485Z,57.10
2022-08-27T16:18:03.788Z,56.90
2022-08-27T16:20:30.879Z,57.10
2022-08-27T16:22:57.949Z,57.20
2022-08-27T16:25:24.948Z,57.30
2022-08-27T16:27:53.407Z,57.30
2022-08-27T16:30:22.273Z,57.10
2022-08-27T16:32:52.530Z,56.80
2022-08-27T16:35:20.626Z,57.40
2022-08-27T16:37:47.659Z,57.50
2022-08-27T16:40:15.289Z,57.50
2022-08-27T16:42:48.297Z,57.60
2022-08-27T16:45:18.233Z,57.60
2022-08-27T16:48:20.499Z,57.50
2022-08-27T16:50:47.330Z,57.80
2022-08-27T16:53:18.678Z,57.70
2022-08-27T16:55:46.730Z,58.00
2022-08-27T16:58:27.482Z,58.00
2022-08-27T17:00:59.096Z,58.20
2022-08-27T17:03:26.336Z,58.40
2022-08-27T17:05:53.332Z,58.60
2022-08-27T17:08:26.667Z,58.60
2022-08-27T17:10:56.566Z,58.60
2022-08-27T17:13:28.804Z,58.80
2022-08-27T17:16:01.641Z,58.90
2022-08-27T17:18:29.303Z,59.00
2022-08-27T17:20:59.111Z,59.00
2022-08-27T17:23:40.406Z,59.00
2022-08-27T17:26:11.658Z,59.10
2022-08-27T17:28:40.758Z,59.10
2022-08-27T17:31:10.952Z,59.80
2022-08-27T17:33:43.598Z,59.50
2022-08-27T17:36:11.814Z,59.70
2022-08-27T17:38:39.851Z,60.00
2022-08-27T17:41:30.670Z,60.30
2022-08-27T17:44:06.671Z,60.80
2022-08-27T17:46:33.601Z,60.80
2022-08-27T17:49:00.541Z,61.00
2022-08-27T17:51:27.937Z,61.20
2022-08-27T17:54:01.455Z,61.30
2022-08-27T17:56:29.591Z,61.40
2022-08-27T17:59:02.073Z,61.40
2022-08-27T18:01:45.572Z,61.40
2022-08-27T18:04:13.427Z,61.50
2022-08-27T18:06:40.443Z,61.60
2022-08-27T18:09:07.846Z,61.60
2022-08-27T18:11:35.196Z,61.70
2022-08-27T18:14:05.042Z,61.80
2022-08-27T18:16:32.652Z,61.90
2022-08-27T18:19:01.438Z,62.10
2022-08-27T18:21:29.118Z,62.20
2022-08-27T18:23:56.142Z,62.30
2022-08-27T18:26:28.961Z,62.30
2022-08-27T18:28:57.870Z,62.50
2022-08-27T18:31:31.355Z,62.50
2022-08-27T18:34:00.731Z,62.60
2022-08-27T18:36:28.945Z,62.60
2022-08-27T18:38:56.069Z,62.70
2022-08-27T18:41:25.286Z,62.80
2022-08-27T18:43:52.830Z,62.90
2022-08-27T18:46:19.781Z,63.60
2022-08-27T18:48:46.918Z,63.00
2022-08-27T18:51:16.235Z,63.20
2022-08-27T18:53:44.353Z,63.40
2022-08-27T18:56:16.585Z,63.50
2022-08-27T18:58:44.285Z,63.50
2022-08-27T19:01:17.029Z,63.60
2022-08-27T19:03:48.915Z,63.60
2022-08-27T19:06:20.350Z,63.80
2022-08-27T19:08:49.816Z,63.80
2022-08-27T19:11:17.622Z,63.90
2022-08-27T19:13:44.772Z,64.00
2022-08-27T19:16:37.490Z,64.00
2022-08-27T19:19:05.688Z,64.10
2022-08-27T19:21:33.422Z,64.10
2022-08-27T19:24:00.347Z,64.30
2022-08-27T19:26:27.383Z,64.50
2022-08-27T19:28:54.424Z,64.50
2022-08-27T19:31:21.477Z,64.60
2022-08-27T19:33:48.577Z,64.60
2022-08-27T19:36:18.567Z,64.70
2022-08-27T19:38:50.327Z,64.80
2022-08-27T19:41:18.677Z,64.90
2022-08-27T19:43:46.075Z,65.00
2022-08-27T19:46:17.499Z,65.10
2022-08-27T19:48:44.426Z,65.10
2022-08-27T19:51:11.591Z,65.50
2022-08-27T19:53:40.804Z,65.40
2022-08-27T19:56:13.032Z,65.50
2022-08-27T19:58:42.736Z,65.40
2022-08-27T20:01:10.250Z,65.70
2022-08-27T20:03:37.722Z,65.70
2022-08-27T20:06:04.917Z,65.80
2022-08-27T20:08:32.061Z,65.70
2022-08-27T20:10:58.962Z,65.90
2022-08-27T20:13:28.884Z,65.90
2022-08-27T20:15:59.953Z,66.00
2022-08-27T20:18:26.852Z,66.20
2022-08-27T20:20:53.786Z,66.10
2022-08-27T20:23:21.057Z,66.00
2022-08-27T20:25:47.993Z,66.00
2022-08-27T20:28:37.691Z,66.00
2022-08-27T20:31:02.094Z,66.10
2022-08-27T20:33:29.417Z,66.10
2022-08-27T20:35:58.887Z,66.00
2022-08-27T20:38:25.979Z,66.00
2022-08-27T20:40:52.889Z,65.90
2022-08-27T20:43:20.120Z,65.60
2022-08-27T20:45:47.127Z,65.80
2022-08-27T20:48:14.734Z,65.70
2022-08-27T20:50:41.689Z,65.70
2022-08-27T20:53:09.013Z,65.70
2022-08-27T20:55:35.926Z,65.60
2022-08-27T20:58:25.814Z,65.70
2022-08-27T21:00:54.875Z,65.60
2022-08-27T21:03:22.169Z,65.60
2022-08-27T21:05:49.244Z,65.50
2022-08-27T21:08:19.438Z,65.90
2022-08-27T21:10:51.923Z,66.00
2022-08-27T21:13:21.178Z,66.00
2022-08-27T21:15:50.559Z,66.10
2022-08-27T21:18:29.901Z,66.20
2022-08-27T21:21:02.303Z,66.00
2022-08-27T21:23:30.340Z,66.20
2022-08-27T21:26:02.930Z,66.20
2022-08-27T21:28:30.682Z,66.20
2022-08-27T21:30:57.943Z,66.10
2022-08-27T21:33:24.913Z,66.40
2022-08-27T21:35:54.630Z,66.40
2022-08-27T21:38:21.506Z,66.60
2022-08-27T21:40:48.366Z,66.60
2022-08-27T21:43:15.255Z,66.70
2022-08-27T21:45:42.941Z,66.70
2022-08-27T21:48:09.995Z,66.80
2022-08-27T21:50:37.194Z,66.80
2022-08-27T21:53:04.239Z,66.60
2022-08-27T21:55:31.340Z,66.90
2022-08-27T21:57:58.220Z,67.00
2022-08-27T22:00:28.551Z,67.20
2022-08-27T22:02:56.966Z,67.40
2022-08-27T22:05:24.576Z,67.50
2022-08-27T22:07:51.687Z,67.80
2022-08-27T22:10:18.969Z,67.80
2022-08-27T22:12:46.071Z,68.00
2022-08-27T22:15:13.010Z,67.80
2022-08-27T22:17:39.872Z,68.10
2022-08-27T22:20:09.485Z,68.20
2022-08-27T22:22:36.384Z,68.30
2022-08-27T22:25:07.985Z,68.40
2022-08-27T22:27:35.219Z,68.50
2022-08-27T22:30:02.126Z,68.70
2022-08-27T22:32:32.601Z,68.80
2022-08-27T22:34:59.950Z,69.00
2022-08-27T22:37:27.298Z,69.10
2022-08-27T22:39:54.985Z,69.20
2022-08-27T22:42:21.944Z,69.10
2022-08-27T22:44:48.858Z,69.20
2022-08-27T22:47:15.848Z,69.20
2022-08-27T22:49:44.093Z,69.30
2022-08-27T22:52:11.139Z,69.30
2022-08-27T22:54:38.411Z,69.50
2022-08-27T22:57:05.945Z,69.50
2022-08-27T22:59:38.475Z,69.70
2022-08-27T23:02:08.352Z,69.80
2022-08-27T23:04:53.954Z,70.10
2022-08-27T23:07:24.242Z,70.10
2022-08-27T23:09:51.484Z,70.30
2022-08-27T23:12:19.714Z,70.60
2022-08-27T23:14:46.793Z,70.70
2022-08-27T23:17:14.452Z,70.80
2022-08-27T23:19:41.807Z,70.90
2022-08-27T23:22:09.060Z,70.90
2022-08-27T23:24:59.483Z,71.00
2022-08-27T23:27:29.279Z,71.00
2022-08-27T23:30:03.239Z,71.10
2022-08-27T23:32:30.611Z,71.20
2022-08-27T23:34:57.887Z,71.30
2022-08-27T23:37:25.085Z,71.40
2022-08-27T23:39:52.089Z,71.50
2022-08-27T23:42:19.217Z,71.60
2022-08-27T23:44:48.779Z,71.70
2022-08-27T23:47:17.608Z,71.70
2022-08-27T23:49:44.694Z,71.70
2022-08-27T23:52:12.942Z,71.80
2022-08-27T23:54:40.356Z,72.00
2022-08-27T23:57:07.376Z,72.00
2022-08-27T23:59:34.366Z,72.30
